Time;durP1;ratioP1;P1;durP2;ratioP2;P2;SDS_P1;SDS_P2;PMS_P1;PMS_P2;Temp;Humidity;BMP_temperature;BMP_pressure;BME280_temperature;BME280_humidity;BME280_pressure;Samples;Min_cycle;Max_cycle;Signal;HPM_P1;HPM_P2
2022/09/24 00:01:33;;;;;;;47.30;44.83;;;;;;;18.34;72.30;101039.75;5015518;28;102303;-58
2022/09/24 00:04:03;;;;;;;54.47;51.60;;;;;;;18.34;72.57;101037.81;5014964;28;102324;-55
2022/09/24 00:06:34;;;;;;;49.83;47.20;;;;;;;18.33;72.56;101040.91;5016955;28;102158;-55
2022/09/24 00:09:01;;;;;;;46.55;44.15;;;;;;;18.33;72.43;101044.47;5014621;28;103975;-55
2022/09/24 00:11:28;;;;;;;50.47;47.78;;;;;;;18.33;72.48;101044.47;5015430;28;102000;-54
2022/09/24 00:13:55;;;;;;;49.90;47.28;;;;;;;18.34;72.62;101048.81;5015868;28;101874;-54
2022/09/24 00:16:26;;;;;;;49.53;46.80;;;;;;;18.34;72.74;101040.56;5015946;28;102206;-54
2022/09/24 00:18:54;;;;;;;50.00;47.45;;;;;;;18.33;72.55;101033.44;5015842;28;104118;-55
2022/09/24 00:21:22;;;;;;;45.47;43.13;;;;;;;18.33;72.40;101038.94;5015083;28;102395;-54
2022/09/24 00:23:49;;;;;;;;;;;;;;;18.32;72.77;101042.00;5011964;28;102599;-55
2022/09/24 00:29:01;;;;;;;49.17;46.60;;;;;;;18.32;72.45;101036.50;5001931;28;103889;-54
2022/09/24 00:31:28;;;;;;;44.70;42.30;;;;;;;18.31;72.60;101029.34;5000946;28;102010;-55
2022/09/24 00:33:57;;;;;;;49.67;46.97;;;;;;;18.31;72.39;101030.16;5009287;28;102281;-54
2022/09/24 00:36:23;;;;;;;46.95;44.53;;;;;;;18.31;72.83;101030.16;5004538;28;103936;-55
2022/09/24 00:38:52;;;;;;;46.85;44.38;;;;;;;18.32;72.56;101036.50;4995650;28;103842;-54
2022/09/24 00:41:20;;;;;;;48.35;45.80;;;;;;;18.31;72.87;101035.69;5015868;28;102043;-54
2022/09/24 00:43:48;;;;;;;49.15;46.53;;;;;;;18.32;72.76;101031.81;5014827;28;102469;-55
2022/09/24 00:46:21;;;;;;;54.28;51.40;;;;;;;18.31;72.71;101032.13;5016349;28;102208;-55
2022/09/24 00:48:49;;;;;;;49.53;46.90;;;;;;;18.30;72.71;101028.56;5014514;28;104057;-55
2022/09/24 00:51:20;;;;;;;51.40;48.72;;;;;;;18.30;72.34;101031.31;5010389;28;102574;-54
2022/09/24 00:53:51;;;;;;;55.10;52.22;;;;;;;18.31;72.91;101037.63;4995764;28;102396;-54
2022/09/24 00:56:19;;;;;;;48.30;45.70;;;;;;;18.30;72.56;101028.56;4997281;28;102259;-54
2022/09/24 00:58:50;;;;;;;48.97;46.27;;;;;;;18.30;72.86;101023.03;5006743;28;103848;-55
2022/09/24 01:01:18;;;;;;;42.22;40.00;;;;;;;18.30;72.88;101034.06;5003032;28;102957;-55
2022/09/24 01:03:46;;;;;;;45.90;43.53;;;;;;;18.29;73.17;101031.63;5013515;28;102433;-55
2022/09/24 01:06:13;;;;;;;46.58;44.10;;;;;;;18.29;72.84;101032.44;5001242;28;102333;-55
2022/09/24 01:08:41;;;;;;;50.20;47.60;;;;;;;18.29;72.58;101032.44;5010999;28;104069;-55
2022/09/24 01:11:22;;;;;;;41.55;39.40;;;;;;;18.29;72.79;101026.94;5013756;28;102048;-55
2022/09/24 01:14:12;;;;;;;49.70;47.10;;;;;;;18.29;72.76;101026.94;5014313;28;102335;-52
2022/09/24 01:16:45;;;;;;;47.80;45.28;;;;;;;18.29;72.82;101026.94;5015089;28;102598;-55
2022/09/24 01:19:50;;;;;;;51.03;48.40;;;;;;;18.29;72.95;101032.44;5002918;28;104047;-55
2022/09/24 01:22:28;;;;;;;53.25;50.50;;;;;;;18.28;72.90;101030.78;4979228;28;103657;-54
2022/09/24 01:25:01;;;;;;;46.92;44.42;;;;;;;18.29;72.79;101031.63;5014343;28;102024;-55
2022/09/24 01:27:43;;;;;;;41.97;39.70;;;;;;;18.29;72.93;101032.44;5001458;28;102912;-55
2022/09/24 01:30:14;;;;;;;44.22;41.95;;;;;;;18.28;72.76;101030.78;5013660;28;104080;-56
2022/09/24 01:32:48;;;;;;;40.90;38.63;;;;;;;18.29;72.82;101026.94;5012989;28;102474;-55
2022/09/24 01:35:20;;;;;;;39.22;37.20;;;;;;;18.29;72.48;101032.44;5015208;28;102010;-55
2022/09/24 01:37:52;;;;;;;41.67;39.55;;;;;;;18.28;72.85;101033.56;5015988;28;101968;-55
2022/09/24 01:40:22;;;;;;;48.30;45.78;;;;;;;18.28;72.98;101030.78;5009634;28;103936;-55
2022/09/24 01:42:50;;;;;;;50.15;47.35;;;;;;;18.27;72.79;101029.19;4995695;28;102298;-55
2022/09/24 01:45:19;;;;;;;40.83;38.65;;;;;;;18.28;72.71;101033.56;5012453;28;102200;-51
2022/09/24 01:47:46;;;;;;;49.88;47.28;;;;;;;18.28;72.91;101033.56;4999413;28;102258;-55
2022/09/24 01:50:15;;;;;;;40.67;38.60;;;;;;;18.28;72.58;101030.78;4998512;28;104174;-54
2022/09/24 01:52:50;;;;;;;45.47;43.10;;;;;;;18.28;72.58;101035.50;5011347;28;102295;-56
2022/09/24 01:55:23;;;;;;;43.70;41.45;;;;;;;18.28;72.59;101046.53;5014200;28;101871;-55
2022/09/24 01:57:53;;;;;;;52.70;50.00;;;;;;;18.28;72.68;101041.00;5015395;28;101993;-55
2022/09/24 02:00:22;;;;;;;36.85;34.95;;;;;;;18.27;72.86;101031.94;5013942;28;104201;-55
2022/09/24 02:02:57;;;;;;;37.10;35.17;;;;;;;18.27;72.94;101039.38;5013584;28;102286;-56
2022/09/24 02:05:31;;;;;;;37.88;35.85;;;;;;;18.27;72.98;101039.38;5003326;28;102441;-55
2022/09/24 02:08:04;;;;;;;39.13;37.10;;;;;;;18.27;72.91;101042.94;4997205;28;102637;-55
2022/09/24 02:10:36;;;;;;;38.15;36.05;;;;;;;18.27;72.70;101045.72;4994727;28;103845;-55
2022/09/24 02:13:09;;;;;;;35.25;33.42;;;;;;;18.27;72.64;101050.41;5013482;28;102107;-56
2022/09/24 02:15:41;;;;;;;34.88;33.05;;;;;;;18.28;72.70;101049.28;5015936;28;102447;-55
2022/09/24 02:18:11;;;;;;;39.15;37.10;;;;;;;18.27;72.63;101045.72;5017973;28;102302;-56
2022/09/24 02:20:42;;;;;;;42.15;39.97;;;;;;;18.28;72.63;101057.53;5017239;28;104067;-55
2022/09/24 02:23:10;;;;;;;35.67;33.75;;;;;;;18.27;73.20;101053.16;5017288;28;102045;-55
2022/09/24 02:25:41;;;;;;;33.05;31.33;;;;;;;18.26;73.07;101049.59;5015915;28;101894;-55
2022/09/24 02:28:08;;;;;;;48.03;45.50;;;;;;;18.27;72.93;101055.91;5017537;28;102635;-55
2022/09/24 02:30:42;;;;;;;45.00;42.58;;;;;;;18.27;72.58;101059.47;5016021;28;103908;-54
2022/09/24 02:35:58;;;;;;;46.75;44.22;;;;;;;18.26;72.93;101057.88;5006516;28;102243;-55
2022/09/24 02:38:24;;;;;;;46.67;44.25;;;;;;;18.25;72.96;101059.81;5010614;28;102604;-55
2022/09/24 02:40:52;;;;;;;47.75;45.22;;;;;;;18.25;72.85;101064.50;5012708;28;104664;-56
2022/09/24 02:43:18;;;;;;;54.22;51.42;;;;;;;18.24;72.96;101069.19;5007756;28;102321;-54
2022/09/24 02:45:46;;;;;;;47.22;44.78;;;;;;;18.25;72.83;101064.50;5017031;28;102411;-55
2022/09/24 02:48:12;;;;;;;50.00;47.42;;;;;;;18.25;72.71;101070.03;5017566;28;102760;-55
2022/09/24 02:50:39;;;;;;;52.63;49.83;;;;;;;18.23;72.73;101059.28;4998488;28;103996;-55
2022/09/24 02:53:06;;;;;;;49.78;47.17;;;;;;;18.25;73.19;101070.03;5003819;28;102613;-55
2022/09/24 02:55:33;;;;;;;46.85;44.35;;;;;;;18.25;72.80;101070.03;5003440;28;102313;-55
2022/09/24 02:57:59;;;;;;;45.58;43.15;;;;;;;18.25;73.31;101070.03;5010346;28;102056;-55
2022/09/24 03:00:27;;;;;;;43.67;41.35;;;;;;;18.25;73.15;101070.03;5016136;28;104972;-55
2022/09/24 03:02:55;;;;;;;48.50;46.00;;;;;;;18.25;72.82;101072.78;5016422;28;102352;-55
2022/09/24 03:05:21;;;;;;;46.90;44.40;;;;;;;18.23;73.07;101077.78;5012927;28;102182;-55
2022/09/24 03:07:49;;;;;;;51.70;49.00;;;;;;;18.24;73.05;101071.13;5003514;28;102382;-55
2022/09/24 03:10:15;;;;;;;47.38;44.97;;;;;;;18.24;72.92;101079.38;5013077;28;104200;-55
2022/09/24 03:12:42;;;;;;;48.28;45.72;;;;;;;18.24;73.03;101079.38;5017520;28;102549;-56
2022/09/24 03:15:10;;;;;;;49.08;46.58;;;;;;;18.24;73.08;101079.38;5016062;28;102710;-55
2022/09/24 03:17:36;;;;;;;50.55;47.92;;;;;;;18.23;73.03;101072.25;5017706;28;102580;-56
2022/09/24 03:20:05;;;;;;;50.03;47.45;;;;;;;18.23;73.29;101078.59;5015895;28;103854;-55
2022/09/24 03:22:32;;;;;;;49.72;47.13;;;;;;;18.23;73.01;101077.78;5016789;28;102262;-55
2022/09/24 03:24:58;;;;;;;49.78;47.20;;;;;;;18.23;72.93;101080.53;5016891;28;102692;-55
2022/09/24 03:27:25;;;;;;;51.40;48.75;;;;;;;18.25;73.20;101081.03;5010233;28;102460;-55
2022/09/24 03:32:37;;;;;;;46.70;44.28;;;;;;;18.23;72.89;101094.31;4999999;28;102609;-55
2022/09/24 03:35:05;;;;;;;50.95;48.25;;;;;;;18.23;72.96;101088.78;5014476;28;102514;-55
2022/09/24 03:37:35;;;;;;;46.17;43.78;;;;;;;18.23;73.11;101092.34;5005378;28;102567;-55
2022/09/24 03:40:02;;;;;;;52.45;49.67;;;;;;;18.23;72.58;101086.84;4999037;28;103896;-55
2022/09/24 03:42:29;;;;;;;48.97;46.45;;;;;;;18.23;73.03;101086.03;5015344;28;102252;-55
2022/09/24 03:44:57;;;;;;;49.45;46.78;;;;;;;18.21;73.01;101091.88;5016138;28;102455;-55
2022/09/24 03:47:24;;;;;;;46.40;44.00;;;;;;;18.22;73.03;101092.69;5011791;28;102180;-55
2022/09/24 03:49:52;;;;;;;45.20;42.85;;;;;;;18.22;72.78;101098.19;5004518;28;103873;-55
2022/09/24 03:52:20;;;;;;;45.93;43.60;;;;;;;18.23;72.75;101102.56;5016341;28;102860;-55
2022/09/24 03:54:46;;;;;;;49.08;46.58;;;;;;;18.22;73.01;101099.00;5016053;28;102228;-55
2022/09/24 03:57:13;;;;;;;47.50;44.88;;;;;;;18.23;73.04;101105.31;5011963;28;102117;-55
2022/09/24 03:59:42;;;;;;;48.97;46.45;;;;;;;18.23;72.94;101102.56;4995906;28;103879;-55
2022/09/24 04:02:09;;;;;;;46.17;43.75;;;;;;;18.22;72.90;101099.00;4996362;28;102255;-54
2022/09/24 04:04:35;;;;;;;46.63;44.17;;;;;;;18.21;72.89;101102.91;5003653;28;102218;-55
2022/09/24 04:07:02;;;;;;;52.20;49.47;;;;;;;18.22;72.92;101103.69;5016755;28;102214;-55
2022/09/24 04:09:30;;;;;;;49.50;46.78;;;;;;;18.21;72.94;101102.06;5014565;28;103875;-55
2022/09/24 04:11:58;;;;;;;45.65;43.30;;;;;;;18.21;73.13;101102.06;5016279;28;102480;-55
2022/09/24 04:14:24;;;;;;;45.90;43.35;;;;;;;18.21;72.89;101100.13;5010952;28;102155;-55
2022/09/24 04:16:51;;;;;;;48.45;45.75;;;;;;;18.21;73.09;101100.13;5012594;28;102571;-55
2022/09/24 04:19:18;;;;;;;50.72;48.08;;;;;;;18.21;72.90;101102.06;5015609;28;103890;-54
2022/09/24 04:21:45;;;;;;;44.95;42.63;;;;;;;18.20;72.67;101105.94;5015598;28;101913;-55
2022/09/24 04:24:12;;;;;;;51.13;48.47;;;;;;;18.21;72.79;101107.56;5013925;28;102219;-55
2022/09/24 04:26:40;;;;;;;47.10;44.65;;;;;;;18.20;73.02;101112.25;5001158;28;102153;-55
2022/09/24 04:29:06;;;;;;;49.25;46.72;;;;;;;18.20;72.88;101112.25;5014424;28;103984;-55
2022/09/24 04:31:33;;;;;;;47.60;45.10;;;;;;;18.21;72.79;101124.09;5013261;28;101956;-55
2022/09/24 04:34:00;;;;;;;51.10;48.50;;;;;;;18.20;73.14;101122.47;5007099;28;102663;-55
2022/09/24 04:36:27;;;;;;;48.08;45.63;;;;;;;18.21;72.82;101115.81;5015825;28;102250;-55
2022/09/24 04:38:53;;;;;;;52.60;49.97;;;;;;;18.20;73.09;101122.47;5014262;28;104051;-55
2022/09/24 04:41:20;;;;;;;44.97;42.67;;;;;;;18.20;73.21;101125.22;5016024;28;102461;-55
2022/09/24 04:43:48;;;;;;;50.22;47.55;;;;;;;18.20;72.86;101127.97;5013179;28;102626;-55
2022/09/24 04:46:15;;;;;;;50.15;47.53;;;;;;;18.20;73.04;101133.50;5015527;28;102207;-56
2022/09/24 04:48:42;;;;;;;46.13;43.72;;;;;;;18.21;72.94;101126.84;5013541;28;104124;-55
2022/09/24 04:51:09;;;;;;;45.05;42.65;;;;;;;18.21;73.21;101124.09;5014491;28;102291;-55
2022/09/24 04:53:36;;;;;;;48.53;45.95;;;;;;;18.21;73.35;101130.44;5003693;28;102273;-55
2022/09/24 04:56:03;;;;;;;47.25;44.80;;;;;;;18.20;72.87;101133.50;5010742;28;104772;-55
2022/09/24 04:58:30;;;;;;;50.28;47.67;;;;;;;18.21;73.15;101138.72;5012868;28;104989;-55
2022/09/24 05:01:02;;;;;;;40.85;38.72;;;;;;;18.21;72.72;101135.94;5014010;28;102467;-55
2022/09/24 05:03:30;;;;;;;45.03;42.72;;;;;;;18.21;73.33;101135.94;5015082;28;102373;-54
2022/09/24 05:05:56;;;;;;;41.20;39.03;;;;;;;18.22;73.52;101134.00;5011998;28;102183;-55
2022/09/24 05:08:23;;;;;;;44.80;42.42;;;;;;;18.23;73.43;101139.19;5013717;28;103918;-55
2022/09/24 05:10:52;;;;;;;41.75;39.45;;;;;;;18.23;74.20;101139.19;5014617;28;102172;-55
2022/09/24 05:13:20;;;;;;;39.72;37.63;;;;;;;18.25;74.23;101152.66;5011858;28;102769;-55
2022/09/24 05:15:46;;;;;;;39.85;37.72;;;;;;;18.27;73.97;101144.09;5010280;28;103967;-55
2022/09/24 05:18:14;;;;;;;41.67;39.47;;;;;;;18.25;73.76;101136.94;5011794;28;103900;-54
2022/09/24 05:20:40;;;;;;;41.85;39.60;;;;;;;18.25;74.03;101133.38;5007424;28;102275;-55
2022/09/24 05:23:07;;;;;;;37.58;35.63;;;;;;;18.27;74.18;101135.81;5015039;28;102137;-54
2022/09/24 05:27:07;;;;;;;37.42;35.30;;;;;;;18.28;74.27;101131.94;5017556;28;102405;-55
2022/09/24 05:28:20;;;;;;;35.03;33.20;;;;;;;18.29;73.63;101131.63;5015547;28;103967;-55
2022/09/24 05:30:47;;;;;;;37.97;35.97;;;;;;;18.30;73.66;101136.00;5017162;28;102138;-56
2022/09/24 05:33:15;;;;;;;41.67;39.50;;;;;;;18.31;73.86;101134.88;5009653;28;101949;-55
2022/09/24 05:35:42;;;;;;;39.95;37.65;;;;;;;18.33;73.80;101137.31;5002106;28;102399;-55
2022/09/24 05:38:09;;;;;;;38.47;36.42;;;;;;;18.33;73.22;101131.81;5000659;28;103943;-55
2022/09/24 05:40:47;;;;;;;36.85;34.90;;;;;;;18.31;73.23;101126.59;5011993;28;102354;-55
2022/09/24 05:43:15;;;;;;;42.90;40.60;;;;;;;18.33;72.96;101138.13;5009786;28;102055;-55
2022/09/24 05:45:44;;;;;;;38.05;35.85;;;;;;;18.33;73.00;101131.81;5005706;28;102369;-55
2022/09/24 05:48:10;;;;;;;39.28;36.83;;;;;;;18.33;72.51;101138.13;5013650;28;103920;-55
2022/09/24 05:50:38;;;;;;;43.20;40.70;;;;;;;18.33;72.61;101135.38;5012586;28;102283;-55
2022/09/24 05:53:06;;;;;;;40.47;38.30;;;;;;;18.33;72.63;101127.13;5012302;28;102319;-55
2022/09/24 05:55:33;;;;;;;41.17;39.00;;;;;;;18.35;72.24;101124.84;5020011;28;102600;-55
2022/09/24 05:58:05;;;;;;;45.22;42.47;;;;;;;18.35;72.15;101133.09;5016042;28;103988;-55
2022/09/24 06:00:32;;;;;;;60.63;57.55;;;;;;;18.37;72.11;101128.13;5013574;28;102326;-55
2022/09/24 06:03:04;;;;;;;51.67;49.00;;;;;;;18.39;72.16;101134.13;5008802;28;102073;-55
2022/09/24 06:05:34;;;;;;;59.33;56.33;;;;;;;18.39;72.07;101131.38;5013294;28;102458;-55
2022/09/24 06:08:03;;;;;;;53.15;50.40;;;;;;;18.38;72.38;101143.50;5013238;28;103966;-55
2022/09/24 06:10:30;;;;;;;41.13;39.00;;;;;;;18.39;72.02;101142.41;5018874;28;102052;-55
2022/09/24 06:12:57;;;;;;;53.45;50.72;;;;;;;18.38;71.89;101146.25;5019061;28;102157;-56
2022/09/24 06:15:26;;;;;;;51.97;49.20;;;;;;;18.39;71.63;101147.91;5020331;28;102571;-55
2022/09/24 06:17:53;;;;;;;51.30;48.63;;;;;;;18.40;71.65;101155.03;5018393;28;104009;-55
2022/09/24 06:20:20;;;;;;;50.75;48.13;;;;;;;18.40;71.77;101155.03;5018343;28;102177;-55
2022/09/24 06:22:47;;;;;;;51.05;48.13;;;;;;;18.40;71.85;101154.22;5018524;28;102419;-55
2022/09/24 06:25:16;;;;;;;49.75;47.13;;;;;;;18.42;71.83;101158.28;5020325;28;102224;-56
2022/09/24 06:27:43;;;;;;;48.60;46.07;;;;;;;18.42;71.95;101162.97;5018278;28;103908;-55
2022/09/24 06:30:10;;;;;;;51.25;48.38;;;;;;;18.42;72.04;101161.03;5018877;28;101998;-55
2022/09/24 06:32:38;;;;;;;56.83;53.95;;;;;;;18.43;71.60;101157.19;5017709;28;102416;-56
2022/09/24 06:35:05;;;;;;;52.58;49.88;;;;;;;18.44;71.89;101167.06;5015031;28;102167;-55
2022/09/24 06:37:32;;;;;;;49.75;47.20;;;;;;;18.45;71.90;101168.69;5017948;28;103955;-55
2022/09/24 06:39:59;;;;;;;49.22;46.63;;;;;;;18.45;71.76;101162.38;5018384;28;102258;-55
2022/09/24 06:42:27;;;;;;;48.42;45.85;;;;;;;18.44;71.69;101169.81;5018444;28;102406;-55
2022/09/24 06:44:53;;;;;;;50.10;47.45;;;;;;;18.46;71.70;101170.34;5020084;28;102584;-55
2022/09/24 06:47:20;;;;;;;47.53;45.08;;;;;;;18.47;71.74;101176.66;5018145;28;103864;-55
2022/09/24 06:49:46;;;;;;;52.03;49.40;;;;;;;18.49;71.84;101179.91;5014053;28;102029;-55
2022/09/24 06:52:13;;;;;;;46.83;44.33;;;;;;;18.48;71.67;101178.28;5018030;28;102136;-54
2022/09/24 06:54:39;;;;;;;57.92;54.92;;;;;;;18.49;71.94;101174.38;5012782;28;102135;-55
2022/09/24 06:57:06;;;;;;;52.28;49.60;;;;;;;18.48;nan;101176.31;5002624;28;104934;-55
2022/09/24 06:59:34;;;;;;;60.80;57.75;;;;;;;18.51;71.73;101174.09;5017968;28;102059;-54
2022/09/24 07:02:01;;;;;;;57.13;54.20;;;;;;;18.51;71.71;101172.16;5016321;28;102598;-55
2022/09/24 07:04:27;;;;;;;55.83;52.97;;;;;;;18.52;72.07;101183.97;5018395;28;102401;-55
2022/09/24 07:09:40;;;;;;;50.88;48.28;;;;;;;18.52;72.08;101183.97;5007412;28;102243;-55
2022/09/24 07:12:07;;;;;;;54.30;51.45;;;;;;;18.52;71.78;101181.22;5012515;28;104884;-55
2022/09/24 07:14:36;;;;;;;57.92;55.05;;;;;;;18.53;71.78;101185.59;5019275;28;102257;-55
2022/09/24 07:17:02;;;;;;;50.40;47.83;;;;;;;18.54;71.65;101184.50;5015121;28;103928;-55
2022/09/24 07:19:29;;;;;;;51.88;49.15;;;;;;;18.55;71.66;101184.16;5013944;28;102140;-55
2022/09/24 07:21:56;;;;;;;45.58;43.25;;;;;;;18.58;71.67;101182.72;5017021;28;102162;-55
2022/09/24 07:24:23;;;;;;;48.53;46.03;;;;;;;18.59;71.68;101189.88;5019319;28;102286;-55
2022/09/24 07:26:49;;;;;;;45.53;43.13;;;;;;;18.58;71.85;101177.22;5012444;28;104813;-55
2022/09/24 07:29:16;;;;;;;43.22;40.83;;;;;;;18.61;71.85;101187.59;5017439;28;102348;-55
2022/09/24 07:31:44;;;;;;;46.63;44.25;;;;;;;18.60;71.29;101185.97;5017471;28;102014;-55
2022/09/24 07:34:12;;;;;;;42.50;40.33;;;;;;;18.62;71.62;101192.00;5014210;28;102128;-55
2022/09/24 07:36:40;;;;;;;45.20;42.88;;;;;;;18.62;71.56;101184.53;5017472;28;103939;-55
2022/09/24 07:39:06;;;;;;;43.58;41.38;;;;;;;18.64;71.87;101193.28;5016440;28;102083;-54
2022/09/24 07:41:33;;;;;;;43.80;41.53;;;;;;;18.65;71.54;101185.84;5012147;28;102342;-55
2022/09/24 07:44:00;;;;;;;57.40;54.38;;;;;;;18.67;71.85;101186.34;5013139;28;102473;-55
2022/09/24 07:46:26;;;;;;;56.67;53.70;;;;;;;18.69;71.64;101186.84;5014353;28;104238;-55
2022/09/24 07:48:55;;;;;;;53.45;50.72;;;;;;;18.69;71.49;101184.09;5016347;28;102250;-55
2022/09/24 07:51:21;;;;;;;49.27;46.73;;;;;;;18.70;71.51;101194.78;5015818;28;102051;-54
2022/09/24 07:53:48;;;;;;;56.15;53.22;;;;;;;18.70;71.59;101191.22;5012369;28;102790;-55
2022/09/24 07:56:15;;;;;;;54.67;51.92;;;;;;;18.71;71.39;101187.38;5006444;28;103895;-55
2022/09/24 07:58:41;;;;;;;54.15;51.40;;;;;;;18.74;71.35;101197.78;5016153;28;102125;-55
2022/09/24 08:01:08;;;;;;;53.92;51.17;;;;;;;18.75;71.48;101190.31;5016329;28;102119;-55
2022/09/24 08:03:34;;;;;;;48.70;46.20;;;;;;;18.74;71.45;101183.97;5017019;28;102285;-55
2022/09/24 08:06:04;;;;;;;53.63;50.80;;;;;;;18.75;71.75;101182.84;5008027;28;104012;-55
2022/09/24 08:08:31;;;;;;;52.15;49.25;;;;;;;18.76;71.54;101189.19;5016194;28;102359;-54
2022/09/24 08:11:02;;;;;;;51.38;48.70;;;;;;;18.77;71.45;101191.63;5015634;28;102016;-55
2022/09/24 08:13:29;;;;;;;52.05;49.33;;;;;;;18.78;71.12;101193.25;5016407;28;102301;-54
2022/09/24 08:15:58;;;;;;;51.38;48.80;;;;;;;18.79;70.92;101194.91;5015367;28;103959;-56
2022/09/24 08:18:24;;;;;;;50.33;47.78;;;;;;;18.78;70.87;101196.00;5016376;28;102407;-55
2022/09/24 08:20:51;;;;;;;54.25;51.47;;;;;;;18.77;70.83;101185.31;5007657;28;102230;-55
2022/09/24 08:23:22;;;;;;;54.85;52.10;;;;;;;18.77;71.18;101191.63;5016235;28;102282;-55
2022/09/24 08:25:48;;;;;;;50.80;48.22;;;;;;;18.76;70.99;101190.00;5015514;28;103969;-55
2022/09/24 08:28:18;;;;;;;50.85;48.25;;;;;;;18.77;70.84;101193.56;5013893;28;102449;-55
2022/09/24 08:30:45;;;;;;;51.97;49.33;;;;;;;18.77;70.68;101201.84;5008151;28;102847;-55
2022/09/24 08:33:12;;;;;;;56.08;53.22;;;;;;;18.76;70.96;101195.53;5013173;28;102064;-55
2022/09/24 08:35:39;;;;;;;49.90;47.20;;;;;;;18.77;71.03;101197.16;5014924;28;103920;-55
2022/09/24 08:38:06;;;;;;;55.42;52.50;;;;;;;18.77;70.61;101194.38;5009759;28;102809;-54
2022/09/24 08:40:38;;;;;;;54.25;51.50;;;;;;;18.78;70.30;101184.97;5009710;28;102440;-55
2022/09/24 08:43:15;;;;;;;53.22;50.53;;;;;;;18.78;70.23;101179.47;5014819;28;102202;-55
2022/09/24 08:48:37;;;;;;;50.30;47.65;;;;;;;18.79;70.32;101183.88;5012666;28;103445;-55
2022/09/24 08:51:10;;;;;;;47.67;45.22;;;;;;;18.79;70.23;101181.13;5010837;28;102804;-54
2022/09/24 08:53:45;;;;;;;50.03;47.40;;;;;;;18.79;70.31;101186.63;5010808;28;102162;-54
2022/09/24 08:56:16;;;;;;;50.58;47.90;;;;;;;18.78;70.75;101186.94;5003119;28;104070;-55
2022/09/24 08:58:47;;;;;;;51.70;48.95;;;;;;;18.77;70.68;101186.13;5003285;28;102114;-55
2022/09/24 09:01:24;;;;;;;44.42;42.10;;;;;;;18.77;70.42;101179.78;4995072;28;102179;-54
2022/09/24 09:03:55;;;;;;;44.70;42.45;;;;;;;18.77;70.62;101185.31;4996545;28;102488;-54
2022/09/24 09:06:45;;;;;;;45.53;43.15;;;;;;;18.76;70.83;101187.25;4995523;28;104362;-55
2022/09/24 09:09:16;;;;;;;45.67;43.33;;;;;;;18.73;70.63;101174.91;4995911;28;102030;-55
2022/09/24 09:11:47;;;;;;;46.08;43.47;;;;;;;18.71;70.96;101179.09;4989145;28;102202;-55
2022/09/24 09:14:18;;;;;;;43.92;41.40;;;;;;;18.71;70.75;101181.84;4996476;28;102443;-55
2022/09/24 09:16:51;;;;;;;46.22;43.85;;;;;;;18.70;70.56;101182.97;4994350;28;104101;-56
2022/09/24 09:19:22;;;;;;;46.33;43.97;;;;;;;18.69;70.35;101175.81;4989970;28;102428;-55
2022/09/24 09:21:55;;;;;;;47.30;44.92;;;;;;;18.69;70.46;101173.88;4976005;28;101874;-55
2022/09/24 09:24:30;;;;;;;45.33;43.03;;;;;;;18.72;70.34;101169.72;4995426;28;102322;-55
2022/09/24 09:26:59;;;;;;;50.40;47.63;;;;;;;18.72;70.13;101178.00;5014478;28;108082;-55
2022/09/24 09:29:26;;;;;;;49.25;46.72;;;;;;;18.73;70.18;101182.38;5012269;28;104485;-55
2022/09/24 09:32:04;;;;;;;48.97;46.53;;;;;;;18.71;70.38;101187.38;5007915;28;102319;-55
2022/09/24 09:34:47;;;;;;;44.45;42.10;;;;;;;18.69;70.71;101189.63;5004997;28;102668;-55
2022/09/24 09:37:24;;;;;;;53.22;50.25;;;;;;;18.65;70.91;101188.63;5010660;28;103903;-54
2022/09/24 09:40:00;;;;;;;49.08;46.58;;;;;;;18.64;70.86;101185.03;5013181;28;102515;-54
2022/09/24 09:42:31;;;;;;;51.80;49.22;;;;;;;18.64;70.21;101192.47;5014980;28;102353;-54
2022/09/24 09:45:00;;;;;;;51.33;48.72;;;;;;;18.62;70.24;101192.81;5015113;28;102350;-55
2022/09/24 09:47:36;;;;;;;51.37;48.20;;;;;;;18.62;70.05;101184.53;5014490;28;104266;-59
2022/09/24 09:50:05;;;;;;;46.65;44.20;;;;;;;18.62;70.15;101194.75;5013639;28;102591;-55
2022/09/24 09:52:37;;;;;;;46.28;43.90;;;;;;;18.62;70.22;101184.53;5013400;28;101891;-54
2022/09/24 09:55:05;;;;;;;44.60;42.38;;;;;;;18.61;70.42;101193.09;5015889;28;102432;-55
2022/09/24 09:57:35;;;;;;;49.90;47.40;;;;;;;18.60;70.05;101191.47;5012744;28;104141;-55
2022/09/24 10:00:03;;;;;;;48.25;45.85;;;;;;;18.61;70.01;101182.06;5013667;28;104540;-54
2022/09/24 10:02:35;;;;;;;;;;;;;;;18.59;70.12;101178.84;5013609;28;102143;-55
2022/09/24 10:05:05;;;;;;;46.35;43.83;;;;;;;18.59;70.24;101192.63;5010860;28;102466;-54
2022/09/24 10:07:43;;;;;;;49.05;46.47;;;;;;;18.61;70.06;101187.59;5013138;28;104045;-55
2022/09/24 10:10:17;;;;;;;48.17;45.70;;;;;;;18.60;70.20;101185.97;5014450;28;102410;-55
2022/09/24 10:12:45;;;;;;;54.17;51.38;;;;;;;18.59;70.26;101184.34;5008573;28;102780;-54
2022/09/24 10:15:16;;;;;;;49.70;47.17;;;;;;;18.58;70.14;101178.03;5016416;28;102265;-55
2022/09/24 10:17:45;;;;;;;51.60;48.83;;;;;;;18.59;70.00;101184.34;5015204;28;107662;-53
2022/09/24 10:20:17;;;;;;;48.60;46.15;;;;;;;18.58;70.09;101183.53;5015482;28;102186;-54
2022/09/24 10:22:48;;;;;;;46.40;44.03;;;;;;;18.59;70.02;101173.31;5014781;28;102385;-54
2022/09/24 10:25:23;;;;;;;50.15;47.53;;;;;;;18.57;70.33;101170.06;5016704;28;102220;-55
2022/09/24 10:27:52;;;;;;;48.90;46.35;;;;;;;18.59;70.25;101173.31;5014684;28;103875;-54
2022/09/24 10:30:32;;;;;;;48.70;46.20;;;;;;;18.59;70.00;101167.81;5013616;28;102154;-54
2022/09/24 10:33:01;;;;;;;49.75;47.20;;;;;;;18.58;69.90;101168.94;5013172;28;102075;-55
2022/09/24 10:35:29;;;;;;;51.38;48.75;;;;;;;18.58;70.08;101166.19;4997667;28;102322;-54
2022/09/24 10:37:58;;;;;;;47.85;45.38;;;;;;;18.57;70.40;101161.78;5011977;28;104001;-56
2022/09/24 10:40:27;;;;;;;;;;;;;;;18.56;69.80;101162.91;5004157;28;102105;-54
2022/09/24 10:43:00;;;;;;;45.72;43.47;;;;;;;18.56;69.88;101165.69;5017578;28;102008;-54
2022/09/24 10:46:00;;;;;;;47.70;45.28;;;;;;;18.56;70.12;101171.19;5019745;28;102009;-55
2022/09/24 10:48:32;;;;;;;49.55;47.10;;;;;;;18.57;70.14;101164.53;5017069;28;103697;-54
2022/09/24 10:51:10;;;;;;;48.55;45.95;;;;;;;18.55;69.79;101166.81;5017005;28;102132;-54
2022/09/24 10:53:48;;;;;;;46.80;44.33;;;;;;;18.54;69.73;101171.53;5018207;28;101945;-61
2022/09/24 10:56:24;;;;;;;48.35;45.92;;;;;;;18.55;69.87;101172.31;5005996;28;102185;-55
2022/09/24 10:59:12;;;;;;;54.33;51.58;;;;;;;18.54;69.89;101184.50;5016172;28;108048;-54
2022/09/24 11:01:48;;;;;;;51.88;49.20;;;;;;;18.53;70.17;101193.88;5019625;28;102179;-56
2022/09/24 11:04:31;;;;;;;47.88;45.42;;;;;;;18.52;70.00;101189.50;5002706;28;103730;-55
2022/09/24 11:07:37;;;;;;;49.85;47.30;;;;;;;18.52;69.79;101195.00;5019202;28;102154;-54
2022/09/24 11:10:17;;;;;;;51.22;48.60;;;;;;;18.52;69.22;101208.78;4974478;28;103195;-55
2022/09/24 11:12:49;;;;;;;46.58;44.25;;;;;;;18.48;69.10;101194.81;5015930;28;102079;-55
2022/09/24 11:15:31;;;;;;;44.63;42.38;;;;;;;18.48;69.39;101203.09;5017603;28;102035;-54
2022/09/24 11:18:14;;;;;;;44.38;42.13;;;;;;;18.46;69.20;101203.41;5018695;28;102793;-54
2022/09/24 11:20:49;;;;;;;43.33;41.03;;;;;;;18.47;69.26;101199.50;5017438;28;110015;-54
2022/09/24 11:23:42;;;;;;;46.70;44.35;;;;;;;18.46;69.06;101203.41;5007623;28;102029;-55
2022/09/24 11:26:21;;;;;;;45.95;43.60;;;;;;;18.44;69.22;101191.88;4996156;28;102178;-55
2022/09/24 11:29:13;;;;;;;43.42;41.28;;;;;;;18.45;68.87;101196.25;5003772;28;102713;-55